sensor_id;sensor_type;location;lat;lon;timestamp;P1;durP1;ratioP1;P2;durP2;ratioP2
27539;SDS011;15906;52.046;4.724;2022-10-18T00:02:06;15.05;;;7.90;;
27539;SDS011;15906;52.046;4.724;2022-10-18T00:04:31;8.55;;;6.55;;
27539;SDS011;15906;52.046;4.724;2022-10-18T00:06:57;16.25;;;6.97;;
27539;SDS011;15906;52.046;4.724;2022-10-18T00:09:23;13.88;;;7.15;;
27539;SDS011;15906;52.046;4.724;2022-10-18T00:11:48;11.05;;;6.90;;
27539;SDS011;15906;52.046;4.724;2022-10-18T00:14:15;12.95;;;7.28;;
27539;SDS011;15906;52.046;4.724;2022-10-18T00:16:41;12.05;;;7.70;;
27539;SDS011;15906;52.046;4.724;2022-10-18T00:19:06;9.77;;;7.93;;
27539;SDS011;15906;52.046;4.724;2022-10-18T00:21:32;14.18;;;8.05;;
27539;SDS011;15906;52.046;4.724;2022-10-18T00:23:57;8.63;;;6.63;;
27539;SDS011;15906;52.046;4.724;2022-10-18T00:26:24;11.95;;;7.80;;
27539;SDS011;15906;52.046;4.724;2022-10-18T00:28:55;16.58;;;7.65;;
27539;SDS011;15906;52.046;4.724;2022-10-18T00:31:27;11.05;;;7.30;;
27539;SDS011;15906;52.046;4.724;2022-10-18T00:33:59;11.50;;;8.25;;
27539;SDS011;15906;52.046;4.724;2022-10-18T00:36:27;12.80;;;7.95;;
27539;SDS011;15906;52.046;4.724;2022-10-18T00:38:55;10.38;;;7.13;;
27539;SDS011;15906;52.046;4.724;2022-10-18T00:41:23;11.23;;;7.03;;
27539;SDS011;15906;52.046;4.724;2022-10-18T00:46:25;8.90;;;6.68;;
27539;SDS011;15906;52.046;4.724;2022-10-18T00:48:53;13.75;;;7.85;;
27539;SDS011;15906;52.046;4.724;2022-10-18T00:51:20;10.85;;;7.70;;
27539;SDS011;15906;52.046;4.724;2022-10-18T00:53:47;16.67;;;7.47;;
27539;SDS011;15906;52.046;4.724;2022-10-18T00:56:13;11.38;;;7.47;;
27539;SDS011;15906;52.046;4.724;2022-10-18T00:58:39;14.00;;;6.32;;
27539;SDS011;15906;52.046;4.724;2022-10-18T01:01:06;10.52;;;6.18;;
27539;SDS011;15906;52.046;4.724;2022-10-18T01:03:33;11.10;;;7.03;;
27539;SDS011;15906;52.046;4.724;2022-10-18T01:06:00;9.60;;;6.95;;
27539;SDS011;15906;52.046;4.724;2022-10-18T01:13:55;15.50;;;8.07;;
27539;SDS011;15906;52.046;4.724;2022-10-18T01:19:35;14.68;;;7.50;;
27539;SDS011;15906;52.046;4.724;2022-10-18T01:25:13;12.85;;;6.53;;
27539;SDS011;15906;52.046;4.724;2022-10-18T01:30:35;12.35;;;6.85;;
27539;SDS011;15906;52.046;4.724;2022-10-18T01:33:32;11.23;;;6.43;;
27539;SDS011;15906;52.046;4.724;2022-10-18T01:36:09;12.27;;;6.85;;
27539;SDS011;15906;52.046;4.724;2022-10-18T01:38:44;13.60;;;6.20;;
27539;SDS011;15906;52.046;4.724;2022-10-18T01:41:12;9.85;;;5.75;;
27539;SDS011;15906;52.046;4.724;2022-10-18T01:43:39;9.65;;;5.70;;
27539;SDS011;15906;52.046;4.724;2022-10-18T01:46:06;14.27;;;5.63;;
27539;SDS011;15906;52.046;4.724;2022-10-18T01:48:33;13.13;;;6.90;;
27539;SDS011;15906;52.046;4.724;2022-10-18T01:51:02;8.75;;;6.35;;
27539;SDS011;15906;52.046;4.724;2022-10-18T01:53:32;13.73;;;6.35;;
27539;SDS011;15906;52.046;4.724;2022-10-18T01:58:45;8.85;;;6.47;;
27539;SDS011;15906;52.046;4.724;2022-10-18T02:01:24;8.43;;;5.60;;
27539;SDS011;15906;52.046;4.724;2022-10-18T02:03:56;12.90;;;6.82;;
27539;SDS011;15906;52.046;4.724;2022-10-18T02:06:32;12.05;;;6.68;;
27539;SDS011;15906;52.046;4.724;2022-10-18T02:09:10;9.52;;;6.13;;
27539;SDS011;15906;52.046;4.724;2022-10-18T02:11:40;12.88;;;5.82;;
27539;SDS011;15906;52.046;4.724;2022-10-18T02:14:10;10.00;;;6.60;;
27539;SDS011;15906;52.046;4.724;2022-10-18T02:16:40;13.45;;;6.70;;
27539;SDS011;15906;52.046;4.724;2022-10-18T02:21:44;15.32;;;6.55;;
27539;SDS011;15906;52.046;4.724;2022-10-18T02:24:12;11.38;;;6.03;;
27539;SDS011;15906;52.046;4.724;2022-10-18T02:26:39;12.93;;;5.65;;
27539;SDS011;15906;52.046;4.724;2022-10-18T02:29:05;12.93;;;6.25;;
27539;SDS011;15906;52.046;4.724;2022-10-18T02:31:54;12.30;;;5.50;;
27539;SDS011;15906;52.046;4.724;2022-10-18T02:34:24;8.80;;;5.40;;
27539;SDS011;15906;52.046;4.724;2022-10-18T02:36:56;10.45;;;4.65;;
27539;SDS011;15906;52.046;4.724;2022-10-18T02:39:33;5.95;;;4.68;;
27539;SDS011;15906;52.046;4.724;2022-10-18T02:42:02;8.23;;;5.05;;
27539;SDS011;15906;52.046;4.724;2022-10-18T02:44:33;7.70;;;4.65;;
27539;SDS011;15906;52.046;4.724;2022-10-18T02:46:59;8.00;;;4.38;;
27539;SDS011;15906;52.046;4.724;2022-10-18T02:49:25;11.20;;;5.35;;
27539;SDS011;15906;52.046;4.724;2022-10-18T02:51:50;7.35;;;4.95;;
27539;SDS011;15906;52.046;4.724;2022-10-18T02:54:16;14.38;;;5.00;;
27539;SDS011;15906;52.046;4.724;2022-10-18T02:56:41;6.18;;;4.97;;
27539;SDS011;15906;52.046;4.724;2022-10-18T02:59:07;11.07;;;4.80;;
27539;SDS011;15906;52.046;4.724;2022-10-18T03:01:33;7.22;;;4.80;;
27539;SDS011;15906;52.046;4.724;2022-10-18T03:04:00;6.07;;;5.00;;
27539;SDS011;15906;52.046;4.724;2022-10-18T03:06:25;7.93;;;4.82;;
27539;SDS011;15906;52.046;4.724;2022-10-18T03:08:51;10.52;;;5.05;;
27539;SDS011;15906;52.046;4.724;2022-10-18T03:11:17;10.82;;;4.90;;
27539;SDS011;15906;52.046;4.724;2022-10-18T03:13:42;8.18;;;4.10;;
27539;SDS011;15906;52.046;4.724;2022-10-18T03:16:08;8.52;;;5.25;;
27539;SDS011;15906;52.046;4.724;2022-10-18T03:18:33;8.45;;;4.30;;
27539;SDS011;15906;52.046;4.724;2022-10-18T03:21:02;6.28;;;4.18;;
27539;SDS011;15906;52.046;4.724;2022-10-18T03:23:29;17.70;;;4.40;;
27539;SDS011;15906;52.046;4.724;2022-10-18T03:25:55;11.63;;;4.97;;
27539;SDS011;15906;52.046;4.724;2022-10-18T03:28:20;7.93;;;4.82;;
27539;SDS011;15906;52.046;4.724;2022-10-18T03:30:46;7.28;;;4.07;;
27539;SDS011;15906;52.046;4.724;2022-10-18T03:33:11;8.75;;;4.80;;
27539;SDS011;15906;52.046;4.724;2022-10-18T03:35:37;6.35;;;5.05;;
27539;SDS011;15906;52.046;4.724;2022-10-18T03:38:02;7.22;;;4.68;;
27539;SDS011;15906;52.046;4.724;2022-10-18T03:40:28;10.32;;;4.88;;
27539;SDS011;15906;52.046;4.724;2022-10-18T03:42:53;7.68;;;4.70;;
27539;SDS011;15906;52.046;4.724;2022-10-18T03:45:19;6.97;;;4.50;;
27539;SDS011;15906;52.046;4.724;2022-10-18T03:47:44;7.47;;;5.05;;
27539;SDS011;15906;52.046;4.724;2022-10-18T03:50:10;10.48;;;4.53;;
27539;SDS011;15906;52.046;4.724;2022-10-18T03:52:35;8.48;;;4.20;;
27539;SDS011;15906;52.046;4.724;2022-10-18T03:55:01;10.43;;;4.50;;
27539;SDS011;15906;52.046;4.724;2022-10-18T03:57:27;7.30;;;4.18;;
27539;SDS011;15906;52.046;4.724;2022-10-18T03:59:52;9.45;;;4.63;;
27539;SDS011;15906;52.046;4.724;2022-10-18T04:02:18;9.40;;;4.15;;
27539;SDS011;15906;52.046;4.724;2022-10-18T04:04:43;8.75;;;6.32;;
27539;SDS011;15906;52.046;4.724;2022-10-18T04:07:09;6.13;;;4.32;;
27539;SDS011;15906;52.046;4.724;2022-10-18T04:09:34;7.95;;;4.35;;
27539;SDS011;15906;52.046;4.724;2022-10-18T04:12:00;7.80;;;4.45;;
27539;SDS011;15906;52.046;4.724;2022-10-18T04:14:25;7.30;;;3.85;;
27539;SDS011;15906;52.046;4.724;2022-10-18T04:16:51;7.20;;;4.05;;
27539;SDS011;15906;52.046;4.724;2022-10-18T04:19:17;10.35;;;4.53;;
27539;SDS011;15906;52.046;4.724;2022-10-18T04:21:42;11.48;;;4.45;;
27539;SDS011;15906;52.046;4.724;2022-10-18T04:24:08;7.07;;;4.10;;
27539;SDS011;15906;52.046;4.724;2022-10-18T04:26:34;6.88;;;4.60;;
27539;SDS011;15906;52.046;4.724;2022-10-18T04:28:59;7.38;;;5.15;;
27539;SDS011;15906;52.046;4.724;2022-10-18T04:31:25;8.55;;;4.78;;
27539;SDS011;15906;52.046;4.724;2022-10-18T04:33:50;13.75;;;5.00;;
27539;SDS011;15906;52.046;4.724;2022-10-18T04:36:16;10.20;;;5.20;;
27539;SDS011;15906;52.046;4.724;2022-10-18T04:38:41;9.63;;;4.70;;
27539;SDS011;15906;52.046;4.724;2022-10-18T04:41:07;9.65;;;5.20;;
27539;SDS011;15906;52.046;4.724;2022-10-18T04:43:32;7.78;;;4.90;;
27539;SDS011;15906;52.046;4.724;2022-10-18T04:45:58;14.38;;;5.95;;
27539;SDS011;15906;52.046;4.724;2022-10-18T04:48:24;9.52;;;6.80;;
27539;SDS011;15906;52.046;4.724;2022-10-18T04:50:50;8.70;;;5.78;;
27539;SDS011;15906;52.046;4.724;2022-10-18T04:53:16;8.18;;;5.90;;
27539;SDS011;15906;52.046;4.724;2022-10-18T04:55:43;12.95;;;5.72;;
27539;SDS011;15906;52.046;4.724;2022-10-18T04:58:09;19.13;;;5.63;;
27539;SDS011;15906;52.046;4.724;2022-10-18T05:00:36;9.93;;;5.25;;
27539;SDS011;15906;52.046;4.724;2022-10-18T05:03:01;8.80;;;5.13;;
27539;SDS011;15906;52.046;4.724;2022-10-18T05:05:27;6.95;;;5.32;;
27539;SDS011;15906;52.046;4.724;2022-10-18T05:07:52;8.73;;;4.93;;
27539;SDS011;15906;52.046;4.724;2022-10-18T05:10:18;7.60;;;4.82;;
27539;SDS011;15906;52.046;4.724;2022-10-18T05:12:43;9.70;;;5.13;;
27539;SDS011;15906;52.046;4.724;2022-10-18T05:15:09;6.85;;;4.65;;
27539;SDS011;15906;52.046;4.724;2022-10-18T05:17:34;7.25;;;4.97;;
27539;SDS011;15906;52.046;4.724;2022-10-18T05:20:00;5.93;;;4.47;;
27539;SDS011;15906;52.046;4.724;2022-10-18T05:22:26;11.38;;;4.72;;
27539;SDS011;15906;52.046;4.724;2022-10-18T05:24:51;5.22;;;4.22;;
27539;SDS011;15906;52.046;4.724;2022-10-18T05:27:17;11.35;;;4.88;;
27539;SDS011;15906;52.046;4.724;2022-10-18T05:29:42;12.95;;;5.60;;
27539;SDS011;15906;52.046;4.724;2022-10-18T05:32:08;10.05;;;5.03;;
27539;SDS011;15906;52.046;4.724;2022-10-18T05:34:34;7.30;;;4.50;;
27539;SDS011;15906;52.046;4.724;2022-10-18T05:36:59;6.05;;;4.53;;
27539;SDS011;15906;52.046;4.724;2022-10-18T05:39:25;9.95;;;4.85;;
27539;SDS011;15906;52.046;4.724;2022-10-18T05:41:50;8.45;;;3.85;;
27539;SDS011;15906;52.046;4.724;2022-10-18T05:44:16;8.23;;;4.18;;
27539;SDS011;15906;52.046;4.724;2022-10-18T05:46:42;5.70;;;4.00;;
27539;SDS011;15906;52.046;4.724;2022-10-18T05:49:09;7.57;;;3.40;;
27539;SDS011;15906;52.046;4.724;2022-10-18T05:51:36;21.25;;;3.33;;
27539;SDS011;15906;52.046;4.724;2022-10-18T05:54:02;6.65;;;3.22;;
27539;SDS011;15906;52.046;4.724;2022-10-18T05:56:27;4.53;;;3.53;;
27539;SDS011;15906;52.046;4.724;2022-10-18T05:58:53;7.55;;;3.55;;
27539;SDS011;15906;52.046;4.724;2022-10-18T06:01:19;4.00;;;2.90;;
27539;SDS011;15906;52.046;4.724;2022-10-18T06:03:44;8.48;;;3.10;;
27539;SDS011;15906;52.046;4.724;2022-10-18T06:06:11;8.15;;;3.05;;
27539;SDS011;15906;52.046;4.724;2022-10-18T06:08:38;8.10;;;2.85;;
27539;SDS011;15906;52.046;4.724;2022-10-18T06:11:08;10.38;;;4.35;;
27539;SDS011;15906;52.046;4.724;2022-10-18T06:13:41;5.97;;;3.10;;
27539;SDS011;15906;52.046;4.724;2022-10-18T06:16:09;9.48;;;3.25;;
27539;SDS011;15906;52.046;4.724;2022-10-18T06:18:35;4.88;;;2.85;;
27539;SDS011;15906;52.046;4.724;2022-10-18T06:21:01;9.80;;;3.28;;
27539;SDS011;15906;52.046;4.724;2022-10-18T06:23:27;4.68;;;3.15;;
27539;SDS011;15906;52.046;4.724;2022-10-18T06:25:57;3.25;;;2.88;;
27539;SDS011;15906;52.046;4.724;2022-10-18T06:28:27;5.55;;;3.05;;
27539;SDS011;15906;52.046;4.724;2022-10-18T06:30:53;6.75;;;3.20;;
27539;SDS011;15906;52.046;4.724;2022-10-18T06:33:19;8.90;;;5.20;;
27539;SDS011;15906;52.046;4.724;2022-10-18T06:35:57;7.32;;;3.28;;
27539;SDS011;15906;52.046;4.724;2022-10-18T06:38:28;8.23;;;3.03;;
27539;SDS011;15906;52.046;4.724;2022-10-18T06:40:54;9.88;;;3.47;;
27539;SDS011;15906;52.046;4.724;2022-10-18T06:43:20;6.30;;;2.92;;
27539;SDS011;15906;52.046;4.724;2022-10-18T06:45:47;6.63;;;2.85;;
27539;SDS011;15906;52.046;4.724;2022-10-18T06:48:12;13.18;;;3.00;;
27539;SDS011;15906;52.046;4.724;2022-10-18T06:50:38;3.67;;;2.30;;
27539;SDS011;15906;52.046;4.724;2022-10-18T06:53:04;4.78;;;3.05;;
27539;SDS011;15906;52.046;4.724;2022-10-18T06:55:32;4.55;;;2.72;;
27539;SDS011;15906;52.046;4.724;2022-10-18T06:57:58;8.32;;;3.15;;
27539;SDS011;15906;52.046;4.724;2022-10-18T07:00:24;6.45;;;3.15;;
27539;SDS011;15906;52.046;4.724;2022-10-18T07:02:49;6.28;;;3.25;;
27539;SDS011;15906;52.046;4.724;2022-10-18T07:05:15;6.57;;;2.97;;
27539;SDS011;15906;52.046;4.724;2022-10-18T07:07:40;3.80;;;3.00;;
27539;SDS011;15906;52.046;4.724;2022-10-18T07:10:06;5.97;;;3.03;;
27539;SDS011;15906;52.046;4.724;2022-10-18T07:12:32;6.45;;;3.20;;
27539;SDS011;15906;52.046;4.724;2022-10-18T07:14:58;5.10;;;3.17;;
27539;SDS011;15906;52.046;4.724;2022-10-18T07:17:23;6.00;;;3.00;;
27539;SDS011;15906;52.046;4.724;2022-10-18T07:19:49;5.57;;;3.10;;
27539;SDS011;15906;52.046;4.724;2022-10-18T07:22:15;5.93;;;3.15;;
27539;SDS011;15906;52.046;4.724;2022-10-18T07:24:40;4.32;;;2.42;;
27539;SDS011;15906;52.046;4.724;2022-10-18T07:27:06;7.22;;;3.13;;
27539;SDS011;15906;52.046;4.724;2022-10-18T07:29:32;3.88;;;2.63;;
27539;SDS011;15906;52.046;4.724;2022-10-18T07:31:58;5.90;;;2.70;;
27539;SDS011;15906;52.046;4.724;2022-10-18T07:34:23;5.10;;;2.88;;
27539;SDS011;15906;52.046;4.724;2022-10-18T07:36:49;4.45;;;2.72;;
27539;SDS011;15906;52.046;4.724;2022-10-18T07:39:14;3.33;;;2.88;;
27539;SDS011;15906;52.046;4.724;2022-10-18T07:41:40;5.93;;;3.30;;
27539;SDS011;15906;52.046;4.724;2022-10-18T07:44:06;9.20;;;3.50;;
27539;SDS011;15906;52.046;4.724;2022-10-18T07:46:31;6.15;;;2.88;;
27539;SDS011;15906;52.046;4.724;2022-10-18T07:48:57;5.53;;;3.22;;
27539;SDS011;15906;52.046;4.724;2022-10-18T07:51:23;6.88;;;3.03;;
27539;SDS011;15906;52.046;4.724;2022-10-18T07:53:49;11.68;;;4.03;;
27539;SDS011;15906;52.046;4.724;2022-10-18T07:56:16;9.50;;;3.42;;
27539;SDS011;15906;52.046;4.724;2022-10-18T07:58:45;10.02;;;3.72;;
27539;SDS011;15906;52.046;4.724;2022-10-18T08:01:12;8.25;;;4.00;;
27539;SDS011;15906;52.046;4.724;2022-10-18T08:03:39;9.57;;;3.63;;
27539;SDS011;15906;52.046;4.724;2022-10-18T08:06:06;6.15;;;3.60;;
27539;SDS011;15906;52.046;4.724;2022-10-18T08:08:34;14.93;;;3.90;;
27539;SDS011;15906;52.046;4.724;2022-10-18T08:11:04;13.32;;;4.40;;
27539;SDS011;15906;52.046;4.724;2022-10-18T08:13:31;12.77;;;4.03;;
27539;SDS011;15906;52.046;4.724;2022-10-18T08:16:01;12.98;;;3.50;;
27539;SDS011;15906;52.046;4.724;2022-10-18T08:18:28;11.25;;;3.90;;
27539;SDS011;15906;52.046;4.724;2022-10-18T08:20:54;8.82;;;4.20;;
27539;SDS011;15906;52.046;4.724;2022-10-18T08:23:19;8.65;;;4.03;;
27539;SDS011;15906;52.046;4.724;2022-10-18T08:25:45;10.65;;;3.85;;
27539;SDS011;15906;52.046;4.724;2022-10-18T08:28:11;8.90;;;4.55;;
27539;SDS011;15906;52.046;4.724;2022-10-18T08:30:38;14.90;;;4.30;;
27539;SDS011;15906;52.046;4.724;2022-10-18T08:33:04;18.02;;;4.05;;
27539;SDS011;15906;52.046;4.724;2022-10-18T08:35:30;10.95;;;3.90;;
27539;SDS011;15906;52.046;4.724;2022-10-18T08:37:55;12.15;;;4.15;;
27539;SDS011;15906;52.046;4.724;2022-10-18T08:40:21;10.20;;;4.07;;
27539;SDS011;15906;52.046;4.724;2022-10-18T08:43:02;10.68;;;4.50;;
27539;SDS011;15906;52.046;4.724;2022-10-18T08:45:34;10.05;;;5.32;;
27539;SDS011;15906;52.046;4.724;2022-10-18T08:48:03;12.85;;;4.32;;
27539;SDS011;15906;52.046;4.724;2022-10-18T08:50:31;12.38;;;4.18;;
27539;SDS011;15906;52.046;4.724;2022-10-18T08:55:45;12.93;;;3.85;;
27539;SDS011;15906;52.046;4.724;2022-10-18T08:58:24;10.65;;;3.28;;
27539;SDS011;15906;52.046;4.724;2022-10-18T09:06:27;10.05;;;2.25;;
27539;SDS011;15906;52.046;4.724;2022-10-18T09:11:34;7.60;;;2.00;;
27539;SDS011;15906;52.046;4.724;2022-10-18T09:17:01;8.18;;;1.52;;
27539;SDS011;15906;52.046;4.724;2022-10-18T09:19:52;9.25;;;1.60;;
27539;SDS011;15906;52.046;4.724;2022-10-18T09:22:42;5.18;;;1.25;;
27539;SDS011;15906;52.046;4.724;2022-10-18T09:25:35;7.75;;;1.48;;
27539;SDS011;15906;52.046;4.724;2022-10-18T09:33:32;12.45;;;1.90;;
27539;SDS011;15906;52.046;4.724;2022-10-18T09:36:25;6.13;;;1.10;;
27539;SDS011;15906;52.046;4.724;2022-10-18T09:39:00;11.05;;;1.65;;
27539;SDS011;15906;52.046;4.724;2022-10-18T09:41:45;5.15;;;1.05;;
27539;SDS011;15906;52.046;4.724;2022-10-18T09:47:32;5.97;;;1.35;;
27539;SDS011;15906;52.046;4.724;2022-10-18T09:49:47;4.20;;;1.20;;
27539;SDS011;15906;52.046;4.724;2022-10-18T09:52:22;9.73;;;1.23;;
27539;SDS011;15906;52.046;4.724;2022-10-18T09:54:53;6.03;;;1.73;;
27539;SDS011;15906;52.046;4.724;2022-10-18T09:57:23;5.38;;;1.27;;
27539;SDS011;15906;52.046;4.724;2022-10-18T09:59:51;9.73;;;1.20;;
27539;SDS011;15906;52.046;4.724;2022-10-18T10:02:20;7.22;;;1.40;;
27539;SDS011;15906;52.046;4.724;2022-10-18T10:04:47;6.95;;;1.40;;
27539;SDS011;15906;52.046;4.724;2022-10-18T10:07:15;5.53;;;1.00;;
27539;SDS011;15906;52.046;4.724;2022-10-18T10:09:46;6.63;;;1.52;;
27539;SDS011;15906;52.046;4.724;2022-10-18T10:15:18;5.10;;;0.95;;
27539;SDS011;15906;52.046;4.724;2022-10-18T10:17:46;9.02;;;1.27;;
27539;SDS011;15906;52.046;4.724;2022-10-18T10:20:22;7.55;;;1.38;;
27539;SDS011;15906;52.046;4.724;2022-10-18T10:22:52;7.78;;;1.15;;
27539;SDS011;15906;52.046;4.724;2022-10-18T10:25:23;5.32;;;1.42;;
27539;SDS011;15906;52.046;4.724;2022-10-18T10:27:54;12.60;;;2.17;;
27539;SDS011;15906;52.046;4.724;2022-10-18T10:30:32;5.95;;;1.00;;
27539;SDS011;15906;52.046;4.724;2022-10-18T10:32:59;6.68;;;1.40;;
27539;SDS011;15906;52.046;4.724;2022-10-18T10:35:36;10.32;;;1.10;;
27539;SDS011;15906;52.046;4.724;2022-10-18T10:38:04;5.95;;;1.05;;
27539;SDS011;15906;52.046;4.724;2022-10-18T10:40:48;6.20;;;1.13;;
27539;SDS011;15906;52.046;4.724;2022-10-18T10:43:27;5.93;;;1.20;;
27539;SDS011;15906;52.046;4.724;2022-10-18T10:49:17;3.65;;;1.00;;
27539;SDS011;15906;52.046;4.724;2022-10-18T10:52:03;7.40;;;1.13;;
27539;SDS011;15906;52.046;4.724;2022-10-18T10:54:30;4.97;;;1.05;;
27539;SDS011;15906;52.046;4.724;2022-10-18T10:59:53;6.03;;;1.00;;
27539;SDS011;15906;52.046;4.724;2022-10-18T11:02:30;10.20;;;1.20;;
27539;SDS011;15906;52.046;4.724;2022-10-18T11:05:14;5.00;;;1.27;;
27539;SDS011;15906;52.046;4.724;2022-10-18T11:07:46;4.93;;;0.93;;
27539;SDS011;15906;52.046;4.724;2022-10-18T11:10:15;5.97;;;1.30;;
27539;SDS011;15906;52.046;4.724;2022-10-18T11:12:46;6.65;;;0.90;;
27539;SDS011;15906;52.046;4.724;2022-10-18T11:18:14;5.72;;;1.30;;
27539;SDS011;15906;52.046;4.724;2022-10-18T11:20:52;17.73;;;2.22;;
27539;SDS011;15906;52.046;4.724;2022-10-18T11:23:32;5.57;;;1.67;;
27539;SDS011;15906;52.046;4.724;2022-10-18T11:26:02;5.18;;;1.17;;
27539;SDS011;15906;52.046;4.724;2022-10-18T11:37:21;5.30;;;0.98;;
27539;SDS011;15906;52.046;4.724;2022-10-18T11:43:03;5.70;;;0.90;;
27539;SDS011;15906;52.046;4.724;2022-10-18T11:46:12;4.35;;;0.88;;
27539;SDS011;15906;52.046;4.724;2022-10-18T11:58:01;2.08;;;0.60;;
27539;SDS011;15906;52.046;4.724;2022-10-18T12:05:37;3.85;;;0.90;;
27539;SDS011;15906;52.046;4.724;2022-10-18T12:08:09;7.13;;;1.15;;
27539;SDS011;15906;52.046;4.724;2022-10-18T12:10:43;4.20;;;0.90;;
27539;SDS011;15906;52.046;4.724;2022-10-18T12:13:34;3.75;;;0.82;;
27539;SDS011;15906;52.046;4.724;2022-10-18T12:16:05;4.10;;;0.65;;
27539;SDS011;15906;52.046;4.724;2022-10-18T12:18:32;3.92;;;0.85;;
27539;SDS011;15906;52.046;4.724;2022-10-18T12:21:11;2.03;;;0.52;;
27539;SDS011;15906;52.046;4.724;2022-10-18T12:23:40;3.53;;;0.70;;
27539;SDS011;15906;52.046;4.724;2022-10-18T12:26:11;4.47;;;0.68;;
27539;SDS011;15906;52.046;4.724;2022-10-18T12:28:42;2.00;;;0.60;;
27539;SDS011;15906;52.046;4.724;2022-10-18T12:34:14;7.03;;;0.80;;
27539;SDS011;15906;52.046;4.724;2022-10-18T12:39:25;5.82;;;0.85;;
27539;SDS011;15906;52.046;4.724;2022-10-18T12:41:54;4.30;;;0.80;;
27539;SDS011;15906;52.046;4.724;2022-10-18T12:44:23;6.10;;;0.90;;
27539;SDS011;15906;52.046;4.724;2022-10-18T12:47:03;3.10;;;0.88;;
27539;SDS011;15906;52.046;4.724;2022-10-18T12:52:21;4.97;;;0.98;;
27539;SDS011;15906;52.046;4.724;2022-10-18T13:22:37;2.90;;;0.60;;
27539;SDS011;15906;52.046;4.724;2022-10-18T13:25:27;1.50;;;0.68;;
27539;SDS011;15906;52.046;4.724;2022-10-18T13:31:18;7.75;;;1.08;;
27539;SDS011;15906;52.046;4.724;2022-10-18T13:34:15;1.83;;;0.63;;
27539;SDS011;15906;52.046;4.724;2022-10-18T13:39:33;5.82;;;0.77;;
27539;SDS011;15906;52.046;4.724;2022-10-18T13:44:27;2.28;;;0.60;;
27539;SDS011;15906;52.046;4.724;2022-10-18T13:54:49;2.88;;;0.70;;
27539;SDS011;15906;52.046;4.724;2022-10-18T13:57:44;3.10;;;0.90;;
27539;SDS011;15906;52.046;4.724;2022-10-18T14:03:14;3.30;;;0.85;;
27539;SDS011;15906;52.046;4.724;2022-10-18T14:06:06;4.00;;;0.80;;
27539;SDS011;15906;52.046;4.724;2022-10-18T14:13:53;13.65;;;1.48;;
27539;SDS011;15906;52.046;4.724;2022-10-18T14:16:49;11.10;;;1.25;;
27539;SDS011;15906;52.046;4.724;2022-10-18T14:19:47;4.78;;;0.88;;
27539;SDS011;15906;52.046;4.724;2022-10-18T14:22:24;4.03;;;1.17;;
27539;SDS011;15906;52.046;4.724;2022-10-18T14:24:55;7.55;;;1.00;;
27539;SDS011;15906;52.046;4.724;2022-10-18T14:27:26;5.47;;;1.05;;
27539;SDS011;15906;52.046;4.724;2022-10-18T14:32:41;7.22;;;1.20;;
27539;SDS011;15906;52.046;4.724;2022-10-18T14:35:19;9.00;;;1.00;;
27539;SDS011;15906;52.046;4.724;2022-10-18T14:37:48;6.22;;;1.45;;
27539;SDS011;15906;52.046;4.724;2022-10-18T14:40:28;6.03;;;1.50;;
27539;SDS011;15906;52.046;4.724;2022-10-18T14:43:10;12.43;;;1.38;;
27539;SDS011;15906;52.046;4.724;2022-10-18T14:45:38;4.28;;;1.02;;
27539;SDS011;15906;52.046;4.724;2022-10-18T14:48:04;5.95;;;1.02;;
27539;SDS011;15906;52.046;4.724;2022-10-18T14:50:46;6.07;;;0.90;;
27539;SDS011;15906;52.046;4.724;2022-10-18T14:53:23;4.57;;;1.27;;
27539;SDS011;15906;52.046;4.724;2022-10-18T14:55:55;7.93;;;1.52;;
27539;SDS011;15906;52.046;4.724;2022-10-18T14:58:24;6.50;;;1.10;;
27539;SDS011;15906;52.046;4.724;2022-10-18T15:00:50;6.20;;;1.30;;
27539;SDS011;15906;52.046;4.724;2022-10-18T15:03:16;4.30;;;1.17;;
27539;SDS011;15906;52.046;4.724;2022-10-18T15:08:24;8.15;;;1.05;;
27539;SDS011;15906;52.046;4.724;2022-10-18T15:10:53;8.18;;;1.10;;
27539;SDS011;15906;52.046;4.724;2022-10-18T15:13:20;9.25;;;1.23;;
27539;SDS011;15906;52.046;4.724;2022-10-18T15:15:47;5.88;;;1.15;;
27539;SDS011;15906;52.046;4.724;2022-10-18T15:18:23;11.18;;;1.10;;
27539;SDS011;15906;52.046;4.724;2022-10-18T15:21:05;12.38;;;1.08;;
27539;SDS011;15906;52.046;4.724;2022-10-18T15:23:44;5.13;;;1.20;;
27539;SDS011;15906;52.046;4.724;2022-10-18T15:26:10;4.50;;;1.20;;
27539;SDS011;15906;52.046;4.724;2022-10-18T15:28:42;9.30;;;1.10;;
27539;SDS011;15906;52.046;4.724;2022-10-18T15:31:28;9.15;;;1.83;;
27539;SDS011;15906;52.046;4.724;2022-10-18T15:34:41;5.18;;;1.45;;
27539;SDS011;15906;52.046;4.724;2022-10-18T15:36:49;6.28;;;1.23;;
27539;SDS011;15906;52.046;4.724;2022-10-18T15:39:23;10.98;;;1.10;;
27539;SDS011;15906;52.046;4.724;2022-10-18T15:41:55;4.57;;;1.20;;
27539;SDS011;15906;52.046;4.724;2022-10-18T15:44:33;4.70;;;0.88;;
27539;SDS011;15906;52.046;4.724;2022-10-18T15:54:45;6.10;;;1.27;;
27539;SDS011;15906;52.046;4.724;2022-10-18T15:57:12;7.43;;;1.63;;
27539;SDS011;15906;52.046;4.724;2022-10-18T15:59:52;7.00;;;1.27;;
27539;SDS011;15906;52.046;4.724;2022-10-18T16:02:21;8.43;;;1.40;;
27539;SDS011;15906;52.046;4.724;2022-10-18T16:04:47;4.63;;;1.02;;
27539;SDS011;15906;52.046;4.724;2022-10-18T16:07:13;9.93;;;2.22;;
27539;SDS011;15906;52.046;4.724;2022-10-18T16:09:39;14.63;;;1.67;;
27539;SDS011;15906;52.046;4.724;2022-10-18T16:12:04;4.18;;;1.30;;
27539;SDS011;15906;52.046;4.724;2022-10-18T16:14:30;11.07;;;1.30;;
27539;SDS011;15906;52.046;4.724;2022-10-18T16:17:00;9.18;;;1.73;;
27539;SDS011;15906;52.046;4.724;2022-10-18T16:19:27;10.23;;;2.58;;
27539;SDS011;15906;52.046;4.724;2022-10-18T16:21:53;9.73;;;1.10;;
27539;SDS011;15906;52.046;4.724;2022-10-18T16:24:19;10.52;;;1.63;;
27539;SDS011;15906;52.046;4.724;2022-10-18T16:26:45;8.65;;;1.63;;
27539;SDS011;15906;52.046;4.724;2022-10-18T16:29:12;14.27;;;1.52;;
27539;SDS011;15906;52.046;4.724;2022-10-18T16:31:43;5.47;;;1.40;;
27539;SDS011;15906;52.046;4.724;2022-10-18T16:34:10;14.30;;;1.42;;
27539;SDS011;15906;52.046;4.724;2022-10-18T16:36:38;13.85;;;1.60;;
27539;SDS011;15906;52.046;4.724;2022-10-18T16:39:05;13.15;;;1.13;;
27539;SDS011;15906;52.046;4.724;2022-10-18T16:41:36;6.75;;;1.27;;
27539;SDS011;15906;52.046;4.724;2022-10-18T16:44:02;18.50;;;1.38;;
27539;SDS011;15906;52.046;4.724;2022-10-18T16:46:28;18.90;;;1.35;;
27539;SDS011;15906;52.046;4.724;2022-10-18T16:48:56;5.28;;;1.08;;
27539;SDS011;15906;52.046;4.724;2022-10-18T16:51:21;10.18;;;1.40;;
27539;SDS011;15906;52.046;4.724;2022-10-18T16:53:47;9.45;;;1.67;;
27539;SDS011;15906;52.046;4.724;2022-10-18T16:56:14;14.93;;;1.80;;
27539;SDS011;15906;52.046;4.724;2022-10-18T16:58:42;7.22;;;1.17;;
27539;SDS011;15906;52.046;4.724;2022-10-18T17:01:12;6.88;;;1.80;;
27539;SDS011;15906;52.046;4.724;2022-10-18T17:03:39;9.07;;;2.13;;
27539;SDS011;15906;52.046;4.724;2022-10-18T17:06:04;7.50;;;2.22;;
27539;SDS011;15906;52.046;4.724;2022-10-18T17:08:30;6.43;;;2.05;;
27539;SDS011;15906;52.046;4.724;2022-10-18T17:10:57;10.48;;;3.25;;
27539;SDS011;15906;52.046;4.724;2022-10-18T17:13:23;9.13;;;3.63;;
27539;SDS011;15906;52.046;4.724;2022-10-18T17:15:50;12.77;;;4.13;;
27539;SDS011;15906;52.046;4.724;2022-10-18T17:18:17;14.32;;;4.10;;
27539;SDS011;15906;52.046;4.724;2022-10-18T17:20:45;8.23;;;3.28;;
27539;SDS011;15906;52.046;4.724;2022-10-18T17:23:12;8.98;;;3.47;;
27539;SDS011;15906;52.046;4.724;2022-10-18T17:25:38;9.68;;;3.28;;
27539;SDS011;15906;52.046;4.724;2022-10-18T17:28:05;11.23;;;3.53;;
27539;SDS011;15906;52.046;4.724;2022-10-18T17:30:31;6.55;;;3.78;;
27539;SDS011;15906;52.046;4.724;2022-10-18T17:32:58;4.70;;;3.03;;
27539;SDS011;15906;52.046;4.724;2022-10-18T17:35:23;13.93;;;4.47;;